createdAt,value
2018-07-02T00:00:26.234Z,65.00
2018-07-02T00:02:55.631Z,65.40
2018-07-02T00:05:29.722Z,65.20
2018-07-02T00:07:59.151Z,65.30
2018-07-02T00:12:57.366Z,66.30
2018-07-02T00:15:26.715Z,66.40
2018-07-02T00:17:56.077Z,66.70
2018-07-02T00:20:25.498Z,66.80
2018-07-02T00:22:55.343Z,66.90
2018-07-02T00:25:24.710Z,67.00
2018-07-02T00:27:54.138Z,67.20
2018-07-02T00:30:23.498Z,67.00
2018-07-02T00:32:52.972Z,67.00
2018-07-02T00:37:51.231Z,67.40
2018-07-02T00:40:20.646Z,67.60
2018-07-02T00:42:50.024Z,67.30
2018-07-02T00:45:19.541Z,67.50
2018-07-02T00:47:48.870Z,67.70
2018-07-02T00:50:18.343Z,68.00
2018-07-02T00:52:47.673Z,67.70
2018-07-02T00:55:16.988Z,68.30
2018-07-02T01:00:17.383Z,68.40
2018-07-02T01:02:46.850Z,68.50
2018-07-02T01:05:16.269Z,68.40
2018-07-02T01:07:45.983Z,68.80
2018-07-02T01:10:15.377Z,68.90
2018-07-02T01:12:44.741Z,68.90
2018-07-02T01:17:43.107Z,69.10
2018-07-02T01:20:12.673Z,69.30
2018-07-02T01:22:42.353Z,69.70
2018-07-02T01:25:11.807Z,69.30
2018-07-02T01:27:41.351Z,69.80
2018-07-02T01:30:10.815Z,69.90
2018-07-02T01:32:40.459Z,70.20
2018-07-02T01:35:10.129Z,70.40
2018-07-02T01:37:39.470Z,70.70
2018-07-02T01:40:08.946Z,70.50
2018-07-02T01:42:38.386Z,70.40
2018-07-02T01:45:07.942Z,70.30
2018-07-02T01:47:37.405Z,70.60
2018-07-02T01:50:06.890Z,70.50
2018-07-02T01:52:36.235Z,70.70
2018-07-02T01:55:05.686Z,70.70
2018-07-02T01:57:35.073Z,70.70
2018-07-02T02:00:04.574Z,70.90
2018-07-02T02:02:33.967Z,71.00
2018-07-02T02:05:03.410Z,71.40
2018-07-02T02:10:01.674Z,71.80
2018-07-02T02:12:31.017Z,71.30
2018-07-02T02:15:00.402Z,71.40
2018-07-02T02:17:29.739Z,71.50
2018-07-02T02:19:59.162Z,71.90
2018-07-02T02:22:28.516Z,72.10
2018-07-02T02:24:57.883Z,71.90
2018-07-02T02:27:27.254Z,71.70
2018-07-02T02:29:56.631Z,72.10
2018-07-02T02:32:26.027Z,71.90
2018-07-02T02:34:55.468Z,72.50
2018-07-02T02:37:24.856Z,72.20
2018-07-02T02:42:23.119Z,72.50
2018-07-02T02:44:52.469Z,72.50
2018-07-02T02:47:21.831Z,73.10
2018-07-02T02:49:51.203Z,72.80
2018-07-02T02:52:20.582Z,73.10
2018-07-02T02:54:49.929Z,73.10
2018-07-02T02:57:19.374Z,73.10
2018-07-02T02:59:48.733Z,73.20
2018-07-02T03:02:18.081Z,72.80
2018-07-02T03:04:47.559Z,73.10
2018-07-02T03:07:17.035Z,72.70
2018-07-02T03:09:46.532Z,73.70
2018-07-02T03:12:16.530Z,73.60
2018-07-02T03:14:45.931Z,73.30
2018-07-02T03:17:15.350Z,73.00
2018-07-02T03:19:44.892Z,74.20
2018-07-02T03:22:14.208Z,73.50
2018-07-02T03:24:43.599Z,73.70
2018-07-02T03:29:41.798Z,73.80
2018-07-02T03:34:40.037Z,73.70
2018-07-02T03:37:09.379Z,73.70
2018-07-02T03:39:38.741Z,73.70
2018-07-02T03:42:08.190Z,73.70
2018-07-02T03:44:37.536Z,74.40
2018-07-02T03:47:06.910Z,74.80
2018-07-02T03:49:36.235Z,74.60
2018-07-02T03:52:05.678Z,74.50
2018-07-02T03:54:35.010Z,74.70
2018-07-02T03:57:04.402Z,74.70
2018-07-02T03:59:33.750Z,74.90
2018-07-02T04:02:03.179Z,74.30
2018-07-02T04:04:32.554Z,74.20
2018-07-02T04:07:01.870Z,74.30
2018-07-02T04:09:31.223Z,74.00
2018-07-02T04:12:00.626Z,74.00
2018-07-02T04:14:29.992Z,73.90
2018-07-02T04:19:28.287Z,73.60
2018-07-02T04:21:57.650Z,73.90
2018-07-02T04:24:27.050Z,73.50
2018-07-02T04:26:56.503Z,74.10
2018-07-02T04:29:25.878Z,73.70
2018-07-02T04:31:55.304Z,74.30
2018-07-02T04:34:24.659Z,74.20
2018-07-02T04:36:54.008Z,74.50
2018-07-02T04:39:23.541Z,74.00
2018-07-02T04:41:52.926Z,74.10
2018-07-02T04:44:22.255Z,74.20
2018-07-02T04:46:51.647Z,74.60
2018-07-02T04:49:21.029Z,74.80
2018-07-02T04:51:50.418Z,74.80
2018-07-02T04:56:48.651Z,74.90
2018-07-02T04:59:18.000Z,75.10
2018-07-02T05:01:47.439Z,74.90
2018-07-02T05:06:45.482Z,74.70
2018-07-02T05:09:14.978Z,74.80
2018-07-02T05:11:44.343Z,75.10
2018-07-02T05:19:11.389Z,76.50
2018-07-02T05:21:40.716Z,76.50
2018-07-02T05:26:38.807Z,77.00
2018-07-02T05:29:08.132Z,76.70
2018-07-02T05:31:37.509Z,76.80
2018-07-02T05:36:35.644Z,77.20
2018-07-02T05:39:07.051Z,77.10
2018-07-02T05:41:36.646Z,76.90
2018-07-02T05:46:34.792Z,77.00
2018-07-02T05:49:04.162Z,77.00
2018-07-02T05:51:33.463Z,76.00
2018-07-02T05:54:02.768Z,76.10
2018-07-02T05:56:32.127Z,75.50
2018-07-02T05:59:01.430Z,75.10
2018-07-02T06:01:31.042Z,75.10
2018-07-02T06:04:00.594Z,75.50
2018-07-02T06:06:29.955Z,75.80
2018-07-02T06:16:25.821Z,77.00
2018-07-02T06:18:55.209Z,76.90
2018-07-02T06:21:24.539Z,77.30
2018-07-02T06:23:53.862Z,77.30
2018-07-02T06:26:23.255Z,77.90
2018-07-02T06:28:52.567Z,78.30
2018-07-02T06:31:21.982Z,78.60
2018-07-02T06:33:51.571Z,78.60
2018-07-02T06:36:21.054Z,78.90
2018-07-02T06:41:19.566Z,78.90
2018-07-02T06:43:48.906Z,78.50
2018-07-02T06:46:18.265Z,78.50
2018-07-02T06:48:47.615Z,78.80
2018-07-02T06:51:16.980Z,79.20
2018-07-02T06:53:46.322Z,79.00
2018-07-02T06:56:15.674Z,79.90
2018-07-02T06:58:45.282Z,79.40
2018-07-02T07:01:14.753Z,79.60
2018-07-02T07:03:44.147Z,80.20
2018-07-02T07:06:13.471Z,79.80
2018-07-02T07:08:42.900Z,79.80
2018-07-02T07:11:12.451Z,79.60
2018-07-02T07:13:41.892Z,80.10
2018-07-02T07:16:11.226Z,80.00
2018-07-02T07:18:40.558Z,80.10
2018-07-02T07:21:09.866Z,80.20
2018-07-02T07:23:39.244Z,80.40
2018-07-02T07:26:08.594Z,80.50
2018-07-02T07:31:06.844Z,80.80
2018-07-02T07:33:36.167Z,80.80
2018-07-02T07:41:03.252Z,80.40
2018-07-02T07:46:01.367Z,80.20
2018-07-02T07:48:30.694Z,80.20
2018-07-02T07:51:00.031Z,80.10
2018-07-02T07:53:32.387Z,80.00
2018-07-02T07:56:01.778Z,79.60
2018-07-02T07:58:31.224Z,79.20
2018-07-02T08:01:00.761Z,78.90
2018-07-02T08:03:30.214Z,78.70
2018-07-02T08:05:59.687Z,78.60
2018-07-02T08:08:29.050Z,78.80
2018-07-02T08:10:58.378Z,79.10
2018-07-02T08:13:27.929Z,79.50
2018-07-02T08:15:57.374Z,79.80
2018-07-02T08:18:26.822Z,79.20
2018-07-02T08:20:56.263Z,79.90
2018-07-02T08:25:54.509Z,79.40
2018-07-02T08:28:23.834Z,79.30
2018-07-02T08:30:53.205Z,79.40
2018-07-02T08:33:22.658Z,79.10
2018-07-02T08:35:52.178Z,77.40
2018-07-02T08:38:21.578Z,76.50
2018-07-02T08:40:51.075Z,75.90
2018-07-02T08:45:49.285Z,74.90
2018-07-02T08:48:18.664Z,75.00
2018-07-02T08:50:48.086Z,74.90
2018-07-02T08:53:17.434Z,75.50
2018-07-02T08:55:46.792Z,76.70
2018-07-02T08:58:17.539Z,76.90
2018-07-02T09:00:46.931Z,77.10
2018-07-02T09:03:16.377Z,77.90
2018-07-02T09:05:45.691Z,78.50
2018-07-02T09:08:15.079Z,78.70
2018-07-02T09:10:44.418Z,78.30
2018-07-02T09:13:13.782Z,78.00
2018-07-02T09:15:43.211Z,78.00
2018-07-02T09:18:12.512Z,78.00
2018-07-02T09:23:10.693Z,77.30
2018-07-02T09:28:08.888Z,77.70
2018-07-02T09:30:38.329Z,77.20
2018-07-02T09:33:07.662Z,76.90
2018-07-02T09:35:37.076Z,77.10
2018-07-02T09:38:06.680Z,77.20
2018-07-02T09:40:36.004Z,77.20
2018-07-02T09:45:56.525Z,77.60
2018-07-02T09:48:26.126Z,76.60
2018-07-02T09:50:55.505Z,76.10
2018-07-02T09:53:24.834Z,75.10
2018-07-02T09:55:54.198Z,73.70
2018-07-02T09:58:23.511Z,73.10
2018-07-02T10:00:53.223Z,72.10
2018-07-02T10:03:22.663Z,71.30
2018-07-02T10:05:52.090Z,70.90
2018-07-02T10:10:50.290Z,72.20
2018-07-02T10:13:19.735Z,73.20
2018-07-02T10:15:49.142Z,73.40
2018-07-02T10:20:47.359Z,73.40
2018-07-02T10:23:16.762Z,73.50
2018-07-02T10:25:46.229Z,73.10
2018-07-02T10:28:15.571Z,72.60
2018-07-02T10:30:44.945Z,70.60
2018-07-02T10:33:14.286Z,69.00
2018-07-02T10:35:43.615Z,68.60
2018-07-02T10:38:13.011Z,67.80
2018-07-02T10:40:42.336Z,66.90
2018-07-02T10:43:11.711Z,66.20
2018-07-02T10:45:41.143Z,66.10
2018-07-02T10:48:10.590Z,65.70
2018-07-02T10:50:39.973Z,65.40
2018-07-02T10:53:09.366Z,64.50
2018-07-02T10:55:39.276Z,64.40
2018-07-02T10:58:08.785Z,64.30
2018-07-02T11:00:38.211Z,63.60
2018-07-02T11:03:07.553Z,63.20
2018-07-02T11:05:37.017Z,62.80
2018-07-02T11:08:06.437Z,62.40
2018-07-02T11:10:35.778Z,62.70
2018-07-02T11:13:52.790Z,62.30
2018-07-02T11:16:22.230Z,62.10
2018-07-02T11:18:51.881Z,61.90
2018-07-02T11:21:21.291Z,61.40
2018-07-02T11:23:50.690Z,61.00
2018-07-02T11:26:20.059Z,60.20
2018-07-02T11:28:49.387Z,59.80
2018-07-02T11:31:18.730Z,58.80
2018-07-02T11:33:48.137Z,58.20
2018-07-02T11:36:17.491Z,58.40
2018-07-02T11:38:46.838Z,59.20
2018-07-02T11:43:45.034Z,59.90
2018-07-02T11:46:14.464Z,60.70
2018-07-02T11:48:43.934Z,60.80
2018-07-02T11:51:13.345Z,62.60
2018-07-02T11:53:42.774Z,64.90
2018-07-02T11:56:12.139Z,66.70
2018-07-02T11:58:41.603Z,67.40
2018-07-02T12:01:11.006Z,69.60
2018-07-02T12:03:40.374Z,70.40
2018-07-02T12:06:09.737Z,70.80
2018-07-02T12:08:39.184Z,71.90
2018-07-02T12:11:08.640Z,71.40
2018-07-02T12:13:38.048Z,70.60
2018-07-02T12:18:36.703Z,69.30
2018-07-02T12:21:06.137Z,68.60
2018-07-02T12:23:35.594Z,68.00
2018-07-02T12:26:05.227Z,70.00
2018-07-02T12:28:34.599Z,73.20
2018-07-02T12:31:04.059Z,75.90
2018-07-02T12:33:33.569Z,79.50
2018-07-02T12:36:02.923Z,82.50
2018-07-02T12:38:32.338Z,85.00
2018-07-02T12:41:01.701Z,86.30
2018-07-02T12:43:31.019Z,86.70
2018-07-02T12:46:00.395Z,86.30
2018-07-02T12:50:58.503Z,84.80
2018-07-02T12:53:28.042Z,84.50
2018-07-02T12:55:57.611Z,82.60
2018-07-02T12:58:27.102Z,81.50
2018-07-02T13:00:56.486Z,82.50
2018-07-02T13:05:54.665Z,81.80
2018-07-02T13:08:24.004Z,81.30
2018-07-02T13:10:53.333Z,82.20
2018-07-02T13:13:22.722Z,81.80
2018-07-02T13:15:52.045Z,82.60
2018-07-02T13:18:21.369Z,84.70
2018-07-02T13:20:50.827Z,87.10
2018-07-02T13:23:20.209Z,87.80
2018-07-02T13:25:49.559Z,88.10
2018-07-02T13:28:19.283Z,88.50
2018-07-02T13:30:48.649Z,88.70
2018-07-02T13:33:17.959Z,88.60
2018-07-02T13:35:47.371Z,88.80
2018-07-02T13:38:16.781Z,88.40
2018-07-02T13:40:46.134Z,87.90
2018-07-02T13:43:15.554Z,87.90
2018-07-02T13:45:44.864Z,88.70
2018-07-02T13:48:14.281Z,88.40
2018-07-02T13:50:43.668Z,87.10
2018-07-02T13:53:13.008Z,87.30
2018-07-02T13:55:42.370Z,87.40
2018-07-02T13:58:11.757Z,88.30
2018-07-02T14:00:41.084Z,87.60
2018-07-02T14:03:10.423Z,86.30
2018-07-02T14:08:08.547Z,87.80
2018-07-02T14:10:37.955Z,88.70
2018-07-02T14:13:07.391Z,87.00
2018-07-02T14:15:36.816Z,85.80
2018-07-02T14:18:06.187Z,83.90
2018-07-02T14:20:35.554Z,82.70
2018-07-02T14:23:05.082Z,80.60
2018-07-02T14:25:34.416Z,79.80
2018-07-02T14:28:03.799Z,79.00
2018-07-02T14:30:33.902Z,79.30
2018-07-02T14:33:03.292Z,80.40
2018-07-02T14:35:32.671Z,80.90
2018-07-02T14:38:02.002Z,81.10
2018-07-02T14:40:31.437Z,82.00
2018-07-02T14:43:00.771Z,80.30
2018-07-02T14:45:30.302Z,79.10
2018-07-02T14:47:59.586Z,78.00
2018-07-02T14:50:29.098Z,77.20
2018-07-02T14:52:58.622Z,77.20
2018-07-02T14:55:28.043Z,73.50
2018-07-02T14:57:57.427Z,72.60
2018-07-02T15:00:26.789Z,70.00
2018-07-02T15:05:24.967Z,66.20
2018-07-02T15:07:54.374Z,64.80
2018-07-02T15:12:52.490Z,66.80
2018-07-02T15:15:21.875Z,65.60
2018-07-02T15:17:51.794Z,65.10
2018-07-02T15:20:21.226Z,66.10
2018-07-02T15:22:50.574Z,66.90
2018-07-02T15:25:19.955Z,69.10
2018-07-02T15:27:49.283Z,70.20
2018-07-02T15:30:18.657Z,66.90
2018-07-02T15:32:48.041Z,67.00
2018-07-02T15:35:17.398Z,67.50
2018-07-02T15:40:15.595Z,67.40
2018-07-02T15:42:44.929Z,69.20
2018-07-02T15:45:14.354Z,69.30
2018-07-02T15:47:43.754Z,68.60
2018-07-02T15:50:13.103Z,68.20
2018-07-02T15:52:42.439Z,68.70
2018-07-02T15:55:12.264Z,69.50
2018-07-02T15:57:41.711Z,67.60
2018-07-02T16:00:11.172Z,70.80
2018-07-02T16:02:40.508Z,69.40
2018-07-02T16:07:38.782Z,67.40
2018-07-02T16:10:08.127Z,66.70
2018-07-02T16:12:37.581Z,65.20
2018-07-02T16:15:07.114Z,63.50
2018-07-02T16:20:05.639Z,65.20
2018-07-02T16:22:34.991Z,63.50
2018-07-02T16:25:04.460Z,61.40
2018-07-02T16:27:33.834Z,61.10
2018-07-02T16:30:03.204Z,61.30
2018-07-02T16:32:32.567Z,60.80
2018-07-02T16:35:02.094Z,61.30
2018-07-02T16:37:31.453Z,67.60
2018-07-02T16:40:00.937Z,69.50
2018-07-02T16:44:59.166Z,66.70
2018-07-02T16:47:28.857Z,66.10
2018-07-02T16:49:58.248Z,65.20
2018-07-02T16:52:27.776Z,61.30
2018-07-02T16:54:57.514Z,60.40
2018-07-02T16:57:26.900Z,59.80
2018-07-02T16:59:56.271Z,59.40
2018-07-02T17:02:25.930Z,59.00
2018-07-02T17:04:55.292Z,57.70
2018-07-02T17:07:24.751Z,57.50
2018-07-02T17:09:54.126Z,56.40
2018-07-02T17:12:23.602Z,57.30
2018-07-02T17:14:52.975Z,58.10
2018-07-02T17:19:51.090Z,58.20
2018-07-02T17:22:20.497Z,58.10
2018-07-02T17:24:49.845Z,56.20
2018-07-02T17:27:19.428Z,55.60
2018-07-02T17:29:48.874Z,55.60
2018-07-02T17:32:18.194Z,55.50
2018-07-02T17:37:16.328Z,54.80
2018-07-02T17:39:45.808Z,54.80
2018-07-02T17:42:15.232Z,54.90
2018-07-02T17:44:44.642Z,55.00
2018-07-02T17:47:13.965Z,54.80
2018-07-02T17:52:12.115Z,55.20
2018-07-02T17:54:41.461Z,55.30
2018-07-02T17:57:10.802Z,55.20
2018-07-02T17:59:40.124Z,55.10
2018-07-02T18:02:09.520Z,55.90
2018-07-02T18:04:38.921Z,56.40
2018-07-02T18:07:08.267Z,56.30
2018-07-02T18:09:37.687Z,56.90
2018-07-02T18:12:07.108Z,57.00
2018-07-02T18:14:36.448Z,56.80
2018-07-02T18:17:06.009Z,56.90
2018-07-02T18:19:35.341Z,57.30
2018-07-02T18:22:05.058Z,57.80
2018-07-02T18:24:34.955Z,57.90
2018-07-02T18:27:05.347Z,58.40
2018-07-02T18:29:35.900Z,58.40
2018-07-02T18:32:06.235Z,58.30
2018-07-02T18:34:36.061Z,59.00
2018-07-02T18:37:06.604Z,59.50
2018-07-02T18:39:36.054Z,60.80
2018-07-02T18:42:07.236Z,62.20
2018-07-02T18:44:36.638Z,63.40
2018-07-02T18:47:06.230Z,64.10
2018-07-02T18:49:36.287Z,64.10
2018-07-02T18:52:06.362Z,64.10
2018-07-02T18:54:36.872Z,62.30
2018-07-02T18:59:36.121Z,60.60
2018-07-02T19:02:05.818Z,59.80
2018-07-02T19:04:35.177Z,59.80
2018-07-02T19:07:04.678Z,59.50
2018-07-02T19:09:34.068Z,60.90
2018-07-02T19:12:03.423Z,62.60
2018-07-02T19:14:32.767Z,62.80
2018-07-02T19:17:02.178Z,64.00
2018-07-02T19:19:32.689Z,65.50
2018-07-02T19:22:02.147Z,66.80
2018-07-02T19:24:31.563Z,67.80
2018-07-02T19:27:01.324Z,68.70
2018-07-02T19:29:31.001Z,69.70
2018-07-02T19:32:00.519Z,70.70
2018-07-02T19:34:29.988Z,70.90
2018-07-02T19:36:59.500Z,71.30
2018-07-02T19:39:28.964Z,71.90
2018-07-02T19:44:27.328Z,72.90
2018-07-02T19:46:56.876Z,73.40
2018-07-02T19:49:26.396Z,74.20
2018-07-02T19:51:55.985Z,74.90
2018-07-02T19:54:25.465Z,75.40
2018-07-02T19:56:54.984Z,75.80
2018-07-02T19:59:24.600Z,76.30
2018-07-02T20:01:54.142Z,76.60
2018-07-02T20:04:23.623Z,77.10
2018-07-02T20:06:53.465Z,77.60
2018-07-02T20:09:23.941Z,77.80
2018-07-02T20:11:53.371Z,78.10
2018-07-02T20:14:22.875Z,78.30
2018-07-02T20:16:52.505Z,78.60
2018-07-02T20:19:23.496Z,78.70
2018-07-02T20:26:50.507Z,79.10
2018-07-02T20:29:19.910Z,79.90
2018-07-02T20:31:49.332Z,79.80
2018-07-02T20:34:19.263Z,79.70
2018-07-02T20:36:48.575Z,79.90
2018-07-02T20:39:17.909Z,79.90
2018-07-02T20:41:47.284Z,80.00
2018-07-02T20:44:16.721Z,80.20
2018-07-02T20:46:46.122Z,81.80
2018-07-02T20:49:15.498Z,81.50
2018-07-02T20:51:44.879Z,82.30
2018-07-02T20:54:14.198Z,83.40
2018-07-02T20:56:43.636Z,83.40
2018-07-02T20:59:12.996Z,84.00
2018-07-02T21:01:42.924Z,84.10
2018-07-02T21:04:12.477Z,84.60
2018-07-02T21:06:46.295Z,85.00
2018-07-02T21:09:15.627Z,85.90
2018-07-02T21:11:44.962Z,85.70
2018-07-02T21:16:44.583Z,85.70
2018-07-02T21:19:14.702Z,85.40
2018-07-02T21:24:13.110Z,86.00
2018-07-02T21:26:43.235Z,85.70
2018-07-02T21:29:13.544Z,86.20
2018-07-02T21:31:43.840Z,86.10
2018-07-02T21:34:13.661Z,86.50
2018-07-02T21:36:43.514Z,86.10
2018-07-02T21:39:14.277Z,86.60
2018-07-02T21:41:44.206Z,87.50
2018-07-02T21:46:44.038Z,87.30
2018-07-02T21:49:13.389Z,86.10
2018-07-02T21:51:42.792Z,87.10
2018-07-02T21:54:12.227Z,88.60
2018-07-02T21:56:41.605Z,88.50
2018-07-02T21:59:10.946Z,88.00
2018-07-02T22:01:40.332Z,87.70
2018-07-02T22:04:09.635Z,87.50
2018-07-02T22:06:38.953Z,87.30
2018-07-02T22:09:09.851Z,88.00
2018-07-02T22:11:39.234Z,88.70
2018-07-02T22:14:08.572Z,88.40
2018-07-02T22:16:37.970Z,88.00
2018-07-02T22:19:07.551Z,87.30
2018-07-02T22:21:36.858Z,88.20
2018-07-02T22:24:06.280Z,87.50
2018-07-02T22:26:36.968Z,87.30
2018-07-02T22:29:06.737Z,87.90
2018-07-02T22:31:36.045Z,88.50
2018-07-02T22:34:05.408Z,88.20
2018-07-02T22:36:34.734Z,88.20
2018-07-02T22:39:04.199Z,87.90
2018-07-02T22:41:33.508Z,87.00
2018-07-02T22:44:02.842Z,88.00
2018-07-02T22:46:32.163Z,87.90
2018-07-02T22:49:01.475Z,88.00
2018-07-02T22:53:59.625Z,88.10
2018-07-02T22:56:28.932Z,88.40
2018-07-02T22:58:58.319Z,88.50
2018-07-02T23:01:27.632Z,88.40
2018-07-02T23:03:56.962Z,88.50
2018-07-02T23:08:55.023Z,88.40
2018-07-02T23:11:24.763Z,88.40
2018-07-02T23:13:54.269Z,88.80
2018-07-02T23:21:21.209Z,89.00
2018-07-02T23:23:50.659Z,88.80
2018-07-02T23:26:20.011Z,89.00
2018-07-02T23:28:49.337Z,88.80
2018-07-02T23:31:18.663Z,89.10
2018-07-02T23:36:16.735Z,89.20
2018-07-02T23:38:46.072Z,89.80
2018-07-02T23:41:15.481Z,89.90
2018-07-02T23:43:44.798Z,89.80
2018-07-02T23:46:14.209Z,89.70
2018-07-02T23:48:43.610Z,89.80
2018-07-02T23:51:13.019Z,90.00
2018-07-02T23:53:42.347Z,90.40
2018-07-02T23:58:40.601Z,90.50
